Time;durP1;ratioP1;P1;durP2;ratioP2;P2;SDS_P1;SDS_P2;PMS_P1;PMS_P2;Temp;Humidity;BMP_temperature;BMP_pressure;BME280_temperature;BME280_humidity;BME280_pressure;Samples;Min_cycle;Max_cycle;Signal;HPM_P1;HPM_P2
2023/12/03 00:04:47;;;;;;;18.10;11.70;;;;;;;-3.42;87.92;98334.84;225901;1275;22767;-79
2023/12/03 00:09:49;;;;;;;17.20;11.00;;;;;;;-3.50;87.51;98342.96;225928;1273;22633;-79
2023/12/03 00:14:51;;;;;;;18.60;11.70;;;;;;;-3.54;87.68;98355.80;225972;1275;22597;-79
2023/12/03 00:19:54;;;;;;;20.10;12.00;;;;;;;-3.56;87.68;98356.96;226085;1275;22877;-79
2023/12/03 00:24:56;;;;;;;18.90;11.40;;;;;;;-3.55;87.64;98361.27;226158;1274;22686;-79
2023/12/03 00:29:58;;;;;;;19.70;11.00;;;;;;;-3.55;87.69;98369.98;226194;1273;26247;-78
2023/12/03 00:35:00;;;;;;;21.60;12.20;;;;;;;-3.53;87.77;98377.46;226231;1272;26031;-78
2023/12/03 00:40:03;;;;;;;20.60;10.80;;;;;;;-3.53;87.56;98389.86;226117;1275;22715;-78
2023/12/03 00:45:05;;;;;;;19.40;10.90;;;;;;;-3.54;87.61;98401.96;226023;1275;22614;-78
2023/12/03 00:50:08;;;;;;;19.60;11.30;;;;;;;-3.57;87.30;98407.52;225984;1275;22583;-78
2023/12/03 00:55:10;;;;;;;18.40;11.30;;;;;;;-3.61;87.29;98404.16;226111;1275;23119;-79
2023/12/03 01:00:13;;;;;;;18.20;11.30;;;;;;;-3.64;87.53;98409.23;226155;1275;23134;-78
2023/12/03 01:05:15;;;;;;;22.20;12.10;;;;;;;-3.68;87.19;98412.61;226064;1275;22720;-79
2023/12/03 01:10:17;;;;;;;20.30;11.90;;;;;;;-3.71;87.12;98416.40;226193;1275;22646;-79
2023/12/03 01:15:19;;;;;;;17.10;10.60;;;;;;;-3.76;87.29;98428.50;226273;1253;22957;-79
2023/12/03 01:20:22;;;;;;;17.50;11.20;;;;;;;-3.82;87.12;98443.52;226198;1273;24629;-79
2023/12/03 01:25:24;;;;;;;20.00;11.60;;;;;;;-3.86;87.35;98448.83;226220;1273;22584;-79
2023/12/03 01:30:26;;;;;;;12.80;8.80;;;;;;;-3.88;87.21;98455.13;226205;1271;24251;-79
2023/12/03 01:35:29;;;;;;;15.40;8.90;;;;;;;-3.91;86.97;98460.84;226174;1272;22587;-79
2023/12/03 01:40:32;;;;;;;15.10;9.70;;;;;;;-3.95;86.92;98464.37;226274;1275;22575;-79
2023/12/03 01:45:34;;;;;;;13.80;8.80;;;;;;;-4.00;87.14;98459.69;226115;1272;22575;-79
2023/12/03 01:50:37;;;;;;;12.20;8.90;;;;;;;-4.04;87.23;98453.80;226230;1272;27273;-79
2023/12/03 01:55:40;;;;;;;13.00;8.20;;;;;;;-4.08;86.51;98461.84;226744;1275;22650;-79
2023/12/03 02:00:42;;;;;;;11.90;8.40;;;;;;;-4.12;86.96;98471.70;226258;1275;22700;-79
2023/12/03 02:05:49;;;;;;;11.90;8.00;;;;;;;-4.14;86.84;98484.08;226515;1264;22666;-79
2023/12/03 02:10:51;;;;;;;11.80;7.70;;;;;;;-4.13;86.90;98499.50;226597;1252;22581;-79
2023/12/03 02:15:53;;;;;;;12.50;7.50;;;;;;;-4.10;86.81;98510.31;226281;1269;22559;-79
2023/12/03 02:20:55;;;;;;;12.00;7.80;;;;;;;-4.08;87.07;98513.79;226247;1253;22771;-78
2023/12/03 02:25:58;;;;;;;11.60;7.70;;;;;;;-4.06;86.89;98518.43;226203;1275;22586;-79
2023/12/03 02:31:00;;;;;;;12.90;8.20;;;;;;;-4.04;86.88;98524.70;226688;1275;25569;-78
2023/12/03 02:36:03;;;;;;;9.80;7.30;;;;;;;-4.02;86.93;98541.21;226032;1275;24255;-78
2023/12/03 02:41:07;;;;;;;10.30;6.90;;;;;;;-4.01;86.86;98538.23;226175;1275;22578;-80
2023/12/03 02:46:09;;;;;;;10.60;7.50;;;;;;;-4.00;86.79;98541.04;226161;1272;22838;-78
2023/12/03 02:51:11;;;;;;;11.10;7.50;;;;;;;-3.97;86.99;98552.06;226260;1272;22588;-78
2023/12/03 02:56:13;;;;;;;11.70;7.50;;;;;;;-3.95;87.08;98568.94;226201;1275;22587;-78
2023/12/03 03:01:16;;;;;;;10.90;6.70;;;;;;;-3.91;87.20;98575.05;226206;1272;22589;-78
2023/12/03 03:06:18;;;;;;;11.40;7.50;;;;;;;-3.86;86.99;98585.41;226234;1275;25058;-78
2023/12/03 03:11:20;;;;;;;9.60;6.90;;;;;;;-3.81;87.05;98594.36;226210;1272;22590;-78
2023/12/03 03:16:24;;;;;;;9.90;6.50;;;;;;;-3.79;86.97;98604.33;226181;1275;22588;-78
2023/12/03 03:21:26;;;;;;;10.60;6.70;;;;;;;-3.75;87.00;98610.27;226127;1275;23115;-78
2023/12/03 03:26:28;;;;;;;10.90;6.60;;;;;;;-3.71;87.06;98619.24;226187;1253;22694;-78
2023/12/03 03:31:30;;;;;;;8.30;5.70;;;;;;;-3.68;86.95;98625.79;226211;1272;26875;-78
2023/12/03 03:36:33;;;;;;;9.10;5.90;;;;;;;-3.64;87.11;98626.73;226082;1275;25578;-79
2023/12/03 03:41:35;;;;;;;9.90;6.10;;;;;;;-3.60;87.14;98625.61;226097;1275;24222;-79
2023/12/03 03:46:37;;;;;;;10.80;7.30;;;;;;;-3.60;87.09;98633.31;226141;1275;22590;-78
2023/12/03 03:51:39;;;;;;;10.60;7.10;;;;;;;-3.57;86.90;98637.46;226200;1275;23282;-78
2023/12/03 03:56:47;;;;;;;8.60;5.90;;;;;;;-3.61;86.94;98642.49;226253;1275;22671;-79
2023/12/03 04:01:50;;;;;;;8.30;5.70;;;;;;;-3.66;86.68;98645.25;226210;1272;22582;-78
2023/12/03 04:06:52;;;;;;;8.80;6.30;;;;;;;-3.66;87.03;98641.67;226154;1272;22714;-78
2023/12/03 04:11:54;;;;;;;9.70;6.60;;;;;;;-3.65;86.95;98636.42;226188;1275;24486;-79
2023/12/03 04:16:58;;;;;;;12.70;8.00;;;;;;;-3.60;87.34;98642.14;226176;1275;22729;-78
2023/12/03 04:22:00;;;;;;;12.30;8.30;;;;;;;-3.58;87.04;98648.20;226207;1272;22696;-78
2023/12/03 04:27:03;;;;;;;12.50;8.80;;;;;;;-3.61;87.13;98659.72;226336;1273;23263;-78
2023/12/03 04:32:05;;;;;;;11.70;7.90;;;;;;;-3.64;86.95;98663.90;226177;1275;25475;-79
2023/12/03 04:37:09;;;;;;;12.30;8.40;;;;;;;-3.67;87.23;98658.57;226228;1274;23150;-79
2023/12/03 04:42:11;;;;;;;9.60;6.80;;;;;;;-3.70;87.36;98663.74;226021;1275;25551;-79
2023/12/03 04:47:14;;;;;;;10.40;6.80;;;;;;;-3.72;87.38;98669.13;226107;1275;22645;-77
2023/12/03 04:52:16;;;;;;;10.30;6.60;;;;;;;-3.76;87.61;98676.38;226108;1275;22688;-79
2023/12/03 04:57:18;;;;;;;8.50;5.50;;;;;;;-3.75;88.00;98678.39;225976;1275;23923;-79
2023/12/03 05:02:20;;;;;;;9.00;6.60;;;;;;;-3.73;87.64;98682.45;226075;1254;22941;-79
2023/12/03 05:07:22;;;;;;;8.90;6.40;;;;;;;-3.67;87.66;98684.45;226119;1275;22576;-79
2023/12/03 05:12:24;;;;;;;9.30;6.40;;;;;;;-3.60;87.80;98689.11;226131;1275;22566;-79
2023/12/03 05:17:26;;;;;;;10.00;7.30;;;;;;;-3.51;87.85;98695.77;226157;1275;24206;-79
2023/12/03 05:22:28;;;;;;;8.90;6.20;;;;;;;-3.49;87.33;98695.77;226129;1272;22716;-79
2023/12/03 05:27:30;;;;;;;8.40;5.90;;;;;;;-3.50;87.38;98700.86;226034;1272;22579;-79
2023/12/03 05:32:32;;;;;;;9.40;6.60;;;;;;;-3.52;87.22;98706.84;226048;1275;22557;-79
2023/12/03 05:37:34;;;;;;;9.30;6.10;;;;;;;-3.55;87.41;98710.77;226096;1275;24346;-79
2023/12/03 05:42:36;;;;;;;10.60;6.40;;;;;;;-3.56;87.57;98721.52;226069;1270;23156;-79
2023/12/03 05:47:40;;;;;;;9.80;7.00;;;;;;;-3.58;87.79;98732.18;226115;1273;22658;-80
2023/12/03 05:52:42;;;;;;;10.20;7.40;;;;;;;-3.57;88.27;98740.21;225906;1269;23225;-80
2023/12/03 05:57:45;;;;;;;8.40;5.90;;;;;;;-3.58;89.24;98748.52;226067;1273;22691;-80
2023/12/03 06:02:47;;;;;;;8.00;5.40;;;;;;;-3.56;89.68;98751.47;226131;1275;25063;-79
2023/12/03 06:07:49;;;;;;;9.60;6.70;;;;;;;-3.54;89.57;98753.06;226068;1272;22638;-79
2023/12/03 06:12:51;;;;;;;9.80;6.70;;;;;;;-3.52;89.14;98754.34;226045;1275;22544;-79
2023/12/03 06:17:53;;;;;;;10.60;7.30;;;;;;;-3.49;88.98;98757.79;225933;1275;22597;-80
2023/12/03 06:22:55;;;;;;;11.20;7.00;;;;;;;-3.45;89.35;98763.16;225898;1275;22592;-79
2023/12/03 06:27:57;;;;;;;10.80;6.80;;;;;;;-3.38;89.01;98770.28;226083;1272;22716;-79
2023/12/03 06:32:59;;;;;;;9.70;5.60;;;;;;;-3.36;88.46;98776.67;226106;1273;22606;-79
2023/12/03 06:38:01;;;;;;;9.20;6.40;;;;;;;-3.37;88.41;98786.91;226083;1273;22706;-79
2023/12/03 06:43:04;;;;;;;8.50;5.70;;;;;;;-3.37;88.58;98792.95;226067;1273;22570;-79
2023/12/03 06:48:06;;;;;;;10.80;7.50;;;;;;;-3.34;88.79;98801.15;226062;1273;22855;-80
2023/12/03 06:53:09;;;;;;;10.00;6.30;;;;;;;-3.29;88.64;98812.04;226110;1273;22660;-80
2023/12/03 06:58:11;;;;;;;10.50;6.80;;;;;;;-3.25;88.89;98816.74;226139;1273;22590;-79
2023/12/03 07:03:13;;;;;;;9.30;6.30;;;;;;;-3.19;88.73;98826.01;226121;1272;22774;-80
2023/12/03 07:08:15;;;;;;;9.00;6.30;;;;;;;-3.10;88.51;98823.66;225990;1275;22524;-80
2023/12/03 07:13:18;;;;;;;10.10;6.60;;;;;;;-2.99;88.42;98823.48;226084;1275;22599;-79
2023/12/03 07:18:21;;;;;;;8.90;6.30;;;;;;;-2.88;88.64;98832.54;226077;1275;22702;-79
2023/12/03 07:23:23;;;;;;;9.40;6.90;;;;;;;-2.76;88.59;98836.23;226101;1273;22604;-80
2023/12/03 07:28:25;;;;;;;10.10;7.00;;;;;;;-2.67;88.28;98848.17;226015;1275;22720;-79
2023/12/03 07:33:27;;;;;;;12.30;8.70;;;;;;;-2.54;87.83;98858.01;226083;1275;25464;-81
2023/12/03 07:38:31;;;;;;;11.70;8.40;;;;;;;-2.39;88.16;98858.52;226140;1273;22546;-81
2023/12/03 07:43:35;;;;;;;9.40;7.20;;;;;;;-2.26;88.04;98861.95;225938;1275;22722;-80
2023/12/03 07:48:37;;;;;;;10.60;7.10;;;;;;;-2.16;87.56;98866.55;226171;1275;22478;-80
2023/12/03 07:53:40;;;;;;;9.40;6.40;;;;;;;-2.05;87.64;98873.58;226080;1275;24219;-80
2023/12/03 07:58:43;;;;;;;12.00;8.20;;;;;;;-1.94;87.44;98882.13;226149;1272;23026;-81
2023/12/03 08:03:45;;;;;;;11.60;7.00;;;;;;;-1.85;87.15;98888.23;226115;1276;22559;-82
2023/12/03 08:08:48;;;;;;;11.90;8.70;;;;;;;-1.79;86.89;98895.03;226221;1275;22668;-80
2023/12/03 08:13:52;;;;;;;11.10;7.20;;;;;;;-1.70;86.76;98898.23;226106;1273;23242;-81
2023/12/03 08:18:54;;;;;;;7.90;6.10;;;;;;;-1.62;86.75;98907.69;226105;1273;24239;-81
2023/12/03 08:23:58;;;;;;;8.50;6.30;;;;;;;-1.55;86.42;98912.30;226137;1275;22631;-82
2023/12/03 08:29:00;;;;;;;7.80;5.70;;;;;;;-1.46;86.24;98919.77;226210;1275;22544;-81
2023/12/03 08:34:04;;;;;;;8.10;5.90;;;;;;;-1.36;85.75;98929.31;226183;1275;22540;-80
2023/12/03 08:39:09;;;;;;;9.10;5.50;;;;;;;-1.32;85.55;98936.12;226149;1272;22577;-80
2023/12/03 08:44:13;;;;;;;8.90;5.40;;;;;;;-1.28;85.22;98940.15;226182;1275;22553;-81
2023/12/03 08:49:16;;;;;;;8.50;6.10;;;;;;;-1.22;85.54;98954.88;226111;1272;25322;-80
2023/12/03 08:54:25;;;;;;;8.40;5.90;;;;;;;-1.09;85.25;98956.02;226164;1275;24306;-81
2023/12/03 08:59:30;;;;;;;10.30;6.90;;;;;;;-0.94;85.21;98963.41;226057;1276;22701;-80
2023/12/03 09:04:36;;;;;;;11.00;6.20;;;;;;;-0.71;85.42;98973.27;226194;1276;22544;-80
2023/12/03 09:09:44;;;;;;;10.20;7.00;;;;;;;-0.48;84.74;98981.47;226079;1276;25068;-79
2023/12/03 09:14:47;;;;;;;10.70;7.10;;;;;;;-0.38;84.61;98988.83;226158;1276;22540;-80
2023/12/03 09:19:52;;;;;;;9.00;6.10;;;;;;;-0.42;84.19;98997.38;226020;1276;22670;-76
2023/12/03 09:25:06;;;;;;;9.30;7.00;;;;;;;-0.42;84.42;98995.32;226103;1276;22531;-77
2023/12/03 09:30:12;;;;;;;8.90;6.70;;;;;;;-0.40;84.46;99005.39;226204;1276;22701;-76
2023/12/03 09:35:15;;;;;;;10.70;6.50;;;;;;;-0.37;84.40;99011.77;226089;1275;22543;-76
2023/12/03 09:40:20;;;;;;;8.20;6.40;;;;;;;-0.30;84.31;99012.17;226086;1274;22593;-78
2023/12/03 09:45:26;;;;;;;10.20;6.30;;;;;;;-0.27;83.94;99012.96;226084;1275;22544;-76
2023/12/03 09:50:33;;;;;;;10.10;6.10;;;;;;;-0.27;83.77;99018.46;226055;1271;22547;-77
2023/12/03 09:55:41;;;;;;;10.70;6.80;;;;;;;-0.29;83.68;99025.69;226081;1275;22559;-77
2023/12/03 10:00:46;;;;;;;11.50;7.00;;;;;;;-0.38;83.19;99032.79;226062;1270;25138;-75
2023/12/03 10:05:50;;;;;;;10.90;6.50;;;;;;;-0.43;83.18;99037.27;226179;1275;22876;-78
2023/12/03 10:11:04;;;;;;;8.80;6.00;;;;;;;-0.40;83.25;99041.08;226077;1273;22565;-75
2023/12/03 10:16:11;;;;;;;9.20;5.80;;;;;;;-0.26;82.86;99043.02;226182;1274;22557;-77
2023/12/03 10:21:15;;;;;;;8.70;6.00;;;;;;;-0.11;82.02;99045.48;226039;1273;22549;-77
2023/12/03 10:26:22;;;;;;;9.90;6.80;;;;;;;-0.10;81.35;99052.01;226183;1275;22588;-77
2023/12/03 10:31:32;;;;;;;9.30;6.60;;;;;;;-0.15;81.46;99056.13;226067;1271;22614;-77
2023/12/03 10:36:45;;;;;;;11.80;6.70;;;;;;;-0.28;81.39;99068.41;226189;1271;22718;-78
2023/12/03 10:41:51;;;;;;;10.80;6.50;;;;;;;-0.33;81.66;99074.34;226126;1273;22796;-77
2023/12/03 10:46:58;;;;;;;10.80;7.30;;;;;;;-0.30;82.07;99077.55;226020;1270;22593;-77
2023/12/03 10:52:06;;;;;;;11.90;7.10;;;;;;;-0.25;82.07;99085.48;225976;1275;25983;-77
2023/12/03 10:57:10;;;;;;;11.50;7.10;;;;;;;-0.19;81.58;99094.76;225952;1275;22611;-77
2023/12/03 11:02:20;;;;;;;13.40;8.30;;;;;;;-0.18;81.51;99104.34;225897;1275;22570;-78
2023/12/03 11:07:24;;;;;;;;;;;;;;;-0.04;81.36;99111.81;226116;1274;25971;-77
2023/12/03 11:12:29;;;;;;;12.80;7.60;;;;;;;0.02;80.80;99112.73;226126;1275;25387;-76
2023/12/03 11:17:40;;;;;;;10.80;7.10;;;;;;;-0.07;80.47;99118.02;226204;1275;22595;-76
2023/12/03 11:23:25;;;;;;;11.20;7.30;;;;;;;-0.16;80.07;99132.09;226381;1275;128271;-77
2023/12/03 11:28:29;;;;;;;13.00;7.80;;;;;;;-0.20;80.73;99136.48;226196;1269;22589;-78
2023/12/03 11:33:54;;;;;;;11.80;7.00;;;;;;;-0.19;80.42;99140.55;225986;1275;22553;-77
2023/12/03 11:39:00;;;;;;;11.60;8.00;;;;;;;-0.17;80.59;99142.88;226218;1267;23041;-77
2023/12/03 11:44:23;;;;;;;11.70;7.90;;;;;;;-0.08;80.62;99152.09;226255;1273;22550;-78
2023/12/03 11:49:34;;;;;;;12.40;8.00;;;;;;;0.10;80.67;99151.42;226163;1273;22556;-76
2023/12/03 11:54:58;;;;;;;12.40;7.80;;;;;;;0.28;80.78;99157.55;226171;1275;22548;-76
2023/12/03 12:00:06;;;;;;;12.90;8.00;;;;;;;0.42;80.43;99150.77;226163;1273;22541;-76
2023/12/03 12:05:16;;;;;;;14.50;8.60;;;;;;;0.47;79.75;99147.66;226334;1273;22557;-76
2023/12/03 12:10:25;;;;;;;12.00;8.00;;;;;;;0.45;79.71;99148.46;226095;1273;22583;-76
2023/12/03 12:15:32;;;;;;;11.50;7.80;;;;;;;0.39;79.68;99155.69;226124;1269;22540;-76
2023/12/03 12:20:42;;;;;;;14.70;9.30;;;;;;;0.25;79.16;99156.73;226647;1274;22600;-75
2023/12/03 12:25:53;;;;;;;16.30;10.10;;;;;;;0.08;79.18;99166.17;226007;1275;22566;-77
2023/12/03 12:30:58;;;;;;;15.40;9.10;;;;;;;-0.03;79.44;99170.73;226027;1275;22540;-75
2023/12/03 12:36:03;;;;;;;13.90;9.10;;;;;;;-0.06;79.42;99184.11;226117;1263;23134;-76
2023/12/03 12:41:21;;;;;;;13.50;8.30;;;;;;;-0.05;79.44;99188.55;226087;1275;23826;-76
2023/12/03 12:46:24;;;;;;;14.70;9.70;;;;;;;-0.01;79.38;99189.95;226662;1275;22685;-77
2023/12/03 12:51:28;;;;;;;14.90;10.10;;;;;;;-0.03;79.55;99194.29;226490;1275;23079;-77
2023/12/03 12:56:32;;;;;;;15.30;10.00;;;;;;;-0.07;79.66;99190.29;226086;1275;22602;-78
2023/12/03 13:01:34;;;;;;;15.50;10.60;;;;;;;-0.09;80.04;99197.98;226039;1254;22547;-77
2023/12/03 13:06:41;;;;;;;17.80;11.00;;;;;;;-0.08;79.85;99199.34;226001;1275;25257;-76
2023/12/03 13:11:44;;;;;;;17.50;10.20;;;;;;;-0.07;80.06;99207.38;226226;1275;25587;-77
2023/12/03 13:16:54;;;;;;;16.70;11.00;;;;;;;-0.10;79.99;99214.84;226075;1273;22570;-77
2023/12/03 13:22:04;;;;;;;12.40;8.40;;;;;;;-0.12;79.97;99221.77;226418;1275;22559;-76
2023/12/03 13:27:09;;;;;;;15.70;10.20;;;;;;;-0.20;79.50;99222.20;225995;1275;22566;-77
2023/12/03 13:32:19;;;;;;;13.30;8.50;;;;;;;-0.26;79.85;99230.44;226110;1275;22577;-76
2023/12/03 13:37:21;;;;;;;14.80;9.50;;;;;;;-0.36;79.56;99241.11;226159;1275;22548;-77
2023/12/03 13:42:25;;;;;;;15.30;10.00;;;;;;;-0.36;79.69;99246.34;226178;1269;22554;-78
2023/12/03 13:47:35;;;;;;;16.70;10.50;;;;;;;-0.49;79.59;99255.55;226089;1273;22539;-75
2023/12/03 13:52:38;;;;;;;17.90;11.50;;;;;;;-0.59;79.37;99252.98;226035;1273;24215;-76
2023/12/03 13:57:55;;;;;;;14.50;9.40;;;;;;;-0.87;78.88;99262.84;226133;1273;22688;-76
2023/12/03 14:02:59;;;;;;;15.70;10.20;;;;;;;-1.18;78.75;99270.79;226212;1275;22607;-77
2023/12/03 14:08:02;;;;;;;18.60;12.00;;;;;;;-1.45;78.77;99276.98;226121;1275;22610;-77
2023/12/03 14:13:06;;;;;;;15.50;9.60;;;;;;;-1.64;79.09;99278.19;226108;1275;22629;-78
2023/12/03 14:18:13;;;;;;;19.40;12.10;;;;;;;-1.85;78.96;99282.63;226154;1274;22583;-77
2023/12/03 14:23:23;;;;;;;23.80;14.10;;;;;;;-1.99;79.48;99294.95;226211;1273;22570;-78
2023/12/03 14:28:26;;;;;;;18.10;11.40;;;;;;;-2.11;79.63;99302.23;226210;1266;22589;-77
2023/12/03 14:33:33;;;;;;;20.40;11.50;;;;;;;-2.24;79.51;99302.02;225924;1272;22567;-77
2023/12/03 14:38:44;;;;;;;19.60;11.70;;;;;;;-2.38;79.83;99308.95;226103;1274;22554;-78
2023/12/03 14:43:46;;;;;;;23.40;13.30;;;;;;;-2.57;79.60;99318.15;226127;1271;22683;-79
2023/12/03 14:48:50;;;;;;;24.60;13.10;;;;;;;-2.75;80.23;99321.38;226131;1273;22562;-79
2023/12/03 14:53:55;;;;;;;27.40;14.90;;;;;;;-2.95;80.13;99328.40;226135;1269;22603;-79
2023/12/03 14:59:06;;;;;;;31.90;18.20;;;;;;;-3.23;79.94;99336.94;226179;1275;22536;-78
2023/12/03 15:04:11;;;;;;;29.20;15.40;;;;;;;-3.53;80.03;99340.04;225924;1275;22947;-79
2023/12/03 15:09:21;;;;;;;28.10;14.50;;;;;;;-3.74;80.39;99337.70;226312;1272;22556;-79
2023/12/03 15:14:25;;;;;;;27.40;13.90;;;;;;;-3.83;80.67;99343.59;226239;1269;22591;-78
2023/12/03 15:19:33;;;;;;;24.10;13.20;;;;;;;-3.96;80.69;99345.98;226097;1275;22582;-77
2023/12/03 15:24:38;;;;;;;23.20;14.10;;;;;;;-4.05;80.92;99346.86;226076;1275;22624;-80
2023/12/03 15:29:40;;;;;;;20.60;12.50;;;;;;;-4.09;81.14;99347.60;226214;1272;22687;-77
2023/12/03 15:34:43;;;;;;;21.30;12.30;;;;;;;-4.16;81.07;99354.98;226291;1275;22631;-80
2023/12/03 15:39:45;;;;;;;24.80;13.20;;;;;;;-4.34;81.15;99351.50;226108;1272;22677;-78
2023/12/03 15:45:05;;;;;;;25.20;14.80;;;;;;;-4.49;81.34;99359.70;226131;1275;22585;-79
2023/12/03 15:50:13;;;;;;;24.80;14.60;;;;;;;-4.59;81.55;99357.61;226148;1273;22685;-78
2023/12/03 15:55:24;;;;;;;28.50;14.00;;;;;;;-4.69;81.82;99362.43;226276;1269;25052;-77
2023/12/03 16:00:27;;;;;;;33.40;17.10;;;;;;;-4.79;81.75;99367.40;226144;1272;22578;-76
2023/12/03 16:05:35;;;;;;;33.00;16.40;;;;;;;-4.86;81.66;99372.77;226219;1275;24257;-77
2023/12/03 16:10:38;;;;;;;43.20;21.10;;;;;;;-4.90;81.91;99378.13;226557;1274;23272;-80
2023/12/03 16:15:43;;;;;;;29.50;16.60;;;;;;;-4.81;81.86;99374.41;226266;1269;22644;-77
2023/12/03 16:20:56;;;;;;;30.00;16.80;;;;;;;-4.72;82.08;99380.77;226201;1272;22743;-77
2023/12/03 16:26:16;;;;;;;29.80;16.10;;;;;;;-4.62;82.01;99384.05;226278;1275;22696;-78
2023/12/03 16:31:22;;;;;;;30.90;17.80;;;;;;;-4.53;81.90;99377.59;226001;1275;22619;-78
2023/12/03 16:36:26;;;;;;;29.00;15.20;;;;;;;-4.52;81.99;99392.84;226097;1275;22615;-78
2023/12/03 16:41:31;;;;;;;37.30;19.00;;;;;;;-4.54;81.72;99387.44;226189;1275;22693;-78
2023/12/03 16:46:40;;;;;;;44.40;21.60;;;;;;;-4.51;82.03;99381.96;226089;1274;23288;-79
2023/12/03 16:51:43;;;;;;;52.80;24.10;;;;;;;-4.54;82.06;99385.91;226226;1275;22716;-78
2023/12/03 16:56:46;;;;;;;59.30;30.20;;;;;;;-4.63;81.84;99392.70;226199;1269;25710;-77
2023/12/03 17:01:54;;;;;;;57.40;28.00;;;;;;;-4.73;81.87;99390.27;226181;1274;22671;-77
2023/12/03 17:06:58;;;;;;;48.20;23.60;;;;;;;-4.80;82.02;99392.20;226095;1275;22681;-78
2023/12/03 17:12:00;;;;;;;51.10;23.00;;;;;;;-4.92;82.00;99396.77;226119;1275;22733;-78
2023/12/03 17:17:04;;;;;;;48.60;23.10;;;;;;;-5.04;82.11;99405.73;226206;1274;22575;-77
2023/12/03 17:22:11;;;;;;;50.00;24.70;;;;;;;-5.13;82.00;99409.99;226080;1262;22574;-78
2023/12/03 17:27:14;;;;;;;44.50;21.40;;;;;;;-5.19;82.86;99412.49;226292;1253;22877;-77
2023/12/03 17:32:16;;;;;;;50.90;25.50;;;;;;;-5.16;82.97;99411.48;226239;1275;22713;-79
2023/12/03 17:37:21;;;;;;;53.90;25.60;;;;;;;-5.10;82.92;99411.90;226066;1275;22671;-77
2023/12/03 17:42:27;;;;;;;56.60;26.90;;;;;;;-5.06;83.15;99410.84;226277;1272;22615;-77
2023/12/03 17:47:33;;;;;;;55.90;28.10;;;;;;;-5.04;83.20;99409.67;226200;1275;24023;-78
2023/12/03 17:52:39;;;;;;;60.20;30.50;;;;;;;-5.03;83.57;99406.19;226082;1275;22585;-79
2023/12/03 17:57:45;;;;;;;55.10;28.30;;;;;;;-4.99;83.19;99411.02;226157;1273;23163;-76
2023/12/03 18:02:49;;;;;;;49.60;25.20;;;;;;;-4.96;83.34;99415.15;226204;1275;22645;-76
2023/12/03 18:07:59;;;;;;;54.10;27.70;;;;;;;-4.94;83.52;99418.51;226164;1270;22551;-77
2023/12/03 18:13:05;;;;;;;52.20;26.50;;;;;;;-4.95;83.42;99422.32;226257;1275;24273;-76
2023/12/03 18:18:14;;;;;;;54.30;26.60;;;;;;;-5.03;83.16;99414.81;226089;1273;22772;-76
2023/12/03 18:23:17;;;;;;;63.40;32.10;;;;;;;-5.20;82.93;99412.23;226170;1272;22548;-77
2023/12/03 18:28:23;;;;;;;63.20;31.40;;;;;;;-5.42;82.97;99407.77;226181;1269;25589;-77
2023/12/03 18:33:26;;;;;;;60.20;31.40;;;;;;;-5.63;82.85;99400.00;226280;1275;24469;-77
2023/12/03 18:38:32;;;;;;;57.80;30.00;;;;;;;-5.79;83.19;99401.64;226177;1275;23887;-77
2023/12/03 18:43:34;;;;;;;56.60;29.50;;;;;;;-5.92;83.28;99405.35;226514;1272;22622;-77
2023/12/03 18:48:37;;;;;;;62.50;30.90;;;;;;;-6.02;83.45;99410.27;226101;1274;22552;-76
2023/12/03 18:53:41;;;;;;;62.10;32.10;;;;;;;-6.11;83.46;99415.10;226077;1275;22658;-76
2023/12/03 18:58:44;;;;;;;71.20;35.10;;;;;;;-6.18;83.35;99415.61;226507;1273;22692;-77
2023/12/03 19:03:51;;;;;;;60.70;32.40;;;;;;;-6.28;83.28;99412.30;226294;1275;22733;-77
2023/12/03 19:08:55;;;;;;;59.20;29.30;;;;;;;-6.40;83.36;99420.36;226276;1271;23641;-77
2023/12/03 19:13:58;;;;;;;56.30;28.00;;;;;;;-6.52;83.43;99422.92;226295;1272;22633;-78
2023/12/03 19:19:04;;;;;;;59.30;28.10;;;;;;;-6.61;83.84;99426.55;225993;1275;22601;-78
2023/12/03 19:24:11;;;;;;;55.60;28.20;;;;;;;-6.65;83.60;99427.09;226385;1272;22656;-76
2023/12/03 19:29:19;;;;;;;56.00;28.40;;;;;;;-6.66;83.93;99432.45;226175;1275;22699;-76
2023/12/03 19:34:24;;;;;;;52.30;26.80;;;;;;;-6.62;84.04;99434.98;226339;1275;25670;-77
2023/12/03 19:39:27;;;;;;;55.00;25.10;;;;;;;-6.50;84.27;99433.28;226237;1275;22670;-76
2023/12/03 19:44:35;;;;;;;54.30;27.20;;;;;;;-6.35;84.70;99435.37;226314;1275;22599;-77
2023/12/03 19:49:42;;;;;;;48.80;24.60;;;;;;;-6.19;84.53;99432.11;226226;1275;22568;-78
2023/12/03 19:54:46;;;;;;;48.40;25.20;;;;;;;-6.07;84.61;99432.92;226244;1272;22544;-77
2023/12/03 19:59:48;;;;;;;46.00;23.80;;;;;;;-5.97;84.46;99435.10;226162;1253;22708;-77
2023/12/03 20:04:52;;;;;;;44.10;21.80;;;;;;;-5.91;84.49;99437.03;226237;1269;22554;-77
2023/12/03 20:09:59;;;;;;;49.60;23.50;;;;;;;-5.81;84.41;99440.14;226313;1272;22583;-77
2023/12/03 20:15:15;;;;;;;;;;;;;;;-5.73;84.56;99447.34;226308;1275;23351;-77
2023/12/03 20:20:27;;;;;;;45.70;22.40;;;;;;;-5.64;84.49;99451.90;226310;1275;23055;-78
2023/12/03 20:25:34;;;;;;;42.70;22.50;;;;;;;-5.55;84.70;99456.26;226340;1272;22736;-79
2023/12/03 20:30:38;;;;;;;46.50;23.30;;;;;;;-5.44;84.61;99455.75;226253;1273;22604;-78
2023/12/03 20:35:41;;;;;;;46.20;23.90;;;;;;;-5.34;84.58;99460.41;226143;1266;26237;-78
2023/12/03 20:40:47;;;;;;;44.30;23.70;;;;;;;-5.23;84.64;99459.26;226222;1273;22577;-78
2023/12/03 20:45:53;;;;;;;41.10;22.60;;;;;;;-5.14;84.69;99457.08;226105;1275;23026;-77
2023/12/03 20:50:58;;;;;;;42.20;22.30;;;;;;;-5.04;84.54;99456.59;226273;1272;22717;-78
2023/12/03 20:56:03;;;;;;;51.30;26.50;;;;;;;-4.96;84.42;99457.40;226218;1275;23019;-77
2023/12/03 21:01:10;;;;;;;49.60;25.60;;;;;;;-4.88;84.57;99460.14;226247;1275;22584;-77
2023/12/03 21:06:12;;;;;;;46.40;23.70;;;;;;;-4.79;84.19;99460.20;226109;1272;22608;-77
2023/12/03 21:11:19;;;;;;;45.80;22.80;;;;;;;-4.70;84.40;99452.14;226273;1275;22597;-79
2023/12/03 21:16:23;;;;;;;44.40;22.60;;;;;;;-4.62;84.36;99449.20;226126;1275;22658;-77
2023/12/03 21:21:25;;;;;;;45.10;21.90;;;;;;;-4.56;84.43;99452.86;226250;1275;22562;-79
2023/12/03 21:26:27;;;;;;;53.00;25.60;;;;;;;-4.53;84.23;99456.48;226207;1252;22655;-77
2023/12/03 21:31:32;;;;;;;47.00;22.40;;;;;;;-4.52;84.16;99454.89;226215;1275;25568;-78
2023/12/03 21:36:38;;;;;;;44.20;23.60;;;;;;;-4.55;84.14;99454.68;226158;1275;22536;-77
2023/12/03 21:41:41;;;;;;;42.30;21.90;;;;;;;-4.55;84.26;99455.20;226063;1275;22580;-80
2023/12/03 21:46:44;;;;;;;36.50;20.50;;;;;;;-4.56;84.27;99457.14;226206;1275;22648;-78
2023/12/03 21:51:46;;;;;;;39.20;22.00;;;;;;;-4.54;84.11;99460.50;226377;1275;26764;-78
2023/12/03 21:56:48;;;;;;;35.20;20.30;;;;;;;-4.48;84.45;99460.20;226231;1275;22727;-78
2023/12/03 22:01:51;;;;;;;34.10;19.70;;;;;;;-4.44;84.73;99456.87;226297;1275;22637;-78
2023/12/03 22:07:00;;;;;;;34.80;19.40;;;;;;;-4.42;84.56;99447.47;226248;1275;22689;-78
2023/12/03 22:12:02;;;;;;;34.80;19.10;;;;;;;-4.42;84.43;99448.68;226242;1274;22963;-78
2023/12/03 22:17:04;;;;;;;37.10;19.10;;;;;;;-4.43;84.41;99448.73;226017;1263;22613;-78
2023/12/03 22:22:06;;;;;;;37.60;20.60;;;;;;;-4.43;84.52;99449.92;226362;1272;22580;-76
2023/12/03 22:27:09;;;;;;;37.40;18.70;;;;;;;-4.41;84.58;99450.34;226291;1272;22629;-76
2023/12/03 22:32:11;;;;;;;34.40;18.40;;;;;;;-4.38;84.83;99452.45;226258;1272;22629;-76
2023/12/03 22:37:13;;;;;;;31.10;18.70;;;;;;;-4.36;84.73;99460.08;226256;1272;23306;-76
2023/12/03 22:42:15;;;;;;;36.90;19.10;;;;;;;-4.33;84.52;99460.27;226312;1275;22595;-75
2023/12/03 22:47:17;;;;;;;41.00;20.20;;;;;;;-4.29;84.72;99463.30;226195;1275;22563;-75
2023/12/03 22:52:19;;;;;;;32.80;19.20;;;;;;;-4.29;84.71;99460.89;226210;1275;22723;-74
2023/12/03 22:57:22;;;;;;;33.70;18.40;;;;;;;-4.31;84.39;99463.59;226157;1275;22575;-75
2023/12/03 23:02:24;;;;;;;38.60;20.90;;;;;;;-4.32;84.61;99465.57;226172;1275;25480;-75
2023/12/03 23:07:26;;;;;;;37.10;19.90;;;;;;;-4.31;84.80;99467.04;226179;1272;22521;-75
2023/12/03 23:12:28;;;;;;;36.60;20.50;;;;;;;-4.27;84.81;99466.84;226208;1275;22593;-75
2023/12/03 23:17:31;;;;;;;35.30;19.20;;;;;;;-4.23;84.71;99463.88;226231;1275;22614;-75